createdAt,value
2023-05-19T00:02:06.195Z,11.59
2023-05-19T00:04:35.657Z,11.55
2023-05-19T00:07:02.682Z,11.50
2023-05-19T00:09:30.765Z,11.48
2023-05-19T00:11:58.274Z,11.46
2023-05-19T00:14:26.483Z,11.45
2023-05-19T00:16:56.214Z,11.47
2023-05-19T00:19:25.373Z,11.46
2023-05-19T00:21:53.063Z,11.46
2023-05-19T00:24:20.102Z,11.43
2023-05-19T00:26:47.592Z,11.40
2023-05-19T00:29:18.687Z,11.35
2023-05-19T00:31:46.945Z,11.32
2023-05-19T00:34:14.122Z,11.29
2023-05-19T00:36:41.374Z,11.26
2023-05-19T00:39:08.643Z,11.22
2023-05-19T00:41:35.712Z,11.18
2023-05-19T00:44:02.843Z,11.12
2023-05-19T00:46:30.887Z,11.07
2023-05-19T00:48:58.247Z,11.03
2023-05-19T00:51:27.880Z,10.98
2023-05-19T00:53:55.003Z,10.94
2023-05-19T00:56:22.767Z,10.91
2023-05-19T00:58:51.353Z,10.89
2023-05-19T01:01:21.754Z,10.86
2023-05-19T01:03:49.971Z,10.82
2023-05-19T01:06:19.485Z,10.78
2023-05-19T01:08:47.017Z,10.72
2023-05-19T01:11:14.167Z,10.68
2023-05-19T01:13:42.171Z,10.64
2023-05-19T01:16:13.871Z,10.59
2023-05-19T01:18:56.539Z,10.55
2023-05-19T01:21:55.699Z,10.50
2023-05-19T01:24:47.114Z,10.47
2023-05-19T01:27:32.609Z,10.48
2023-05-19T01:30:09.163Z,10.44
2023-05-19T01:32:36.132Z,10.42
2023-05-19T01:35:03.969Z,10.41
2023-05-19T01:37:31.484Z,10.38
2023-05-19T01:39:58.683Z,10.35
2023-05-19T01:42:25.729Z,10.32
2023-05-19T01:44:53.491Z,10.30
2023-05-19T01:47:20.659Z,10.27
2023-05-19T01:49:47.686Z,10.24
2023-05-19T01:52:15.388Z,10.24
2023-05-19T01:54:42.506Z,10.29
2023-05-19T01:57:20.302Z,10.33
2023-05-19T02:00:00.251Z,10.32
2023-05-19T02:02:34.822Z,10.33
2023-05-19T02:05:08.167Z,10.33
2023-05-19T02:08:16.698Z,10.32
2023-05-19T02:10:45.908Z,10.32
2023-05-19T02:13:14.452Z,10.32
2023-05-19T02:15:42.624Z,10.33
2023-05-19T02:18:13.060Z,10.37
2023-05-19T02:20:40.923Z,10.44
2023-05-19T02:23:08.382Z,10.48
2023-05-19T02:25:35.597Z,10.50
2023-05-19T02:28:02.787Z,10.53
2023-05-19T02:30:31.952Z,10.55
2023-05-19T02:33:00.821Z,10.59
2023-05-19T02:35:28.319Z,10.61
2023-05-19T02:37:55.369Z,10.61
2023-05-19T02:40:23.240Z,10.62
2023-05-19T02:42:50.519Z,10.67
2023-05-19T02:45:18.884Z,10.72
2023-05-19T02:47:46.314Z,10.76
2023-05-19T02:50:13.577Z,10.81
2023-05-19T02:52:40.520Z,10.88
2023-05-19T02:55:08.893Z,10.95
2023-05-19T02:57:36.060Z,11.03
2023-05-19T03:00:03.722Z,11.08
2023-05-19T03:02:31.082Z,11.16
2023-05-19T03:05:01.902Z,11.23
2023-05-19T03:07:28.961Z,11.31
2023-05-19T03:09:55.912Z,11.40
2023-05-19T03:12:22.946Z,11.49
2023-05-19T03:14:50.496Z,11.58
2023-05-19T03:17:17.662Z,11.65
2023-05-19T03:19:45.006Z,11.72
2023-05-19T03:22:12.150Z,11.80
2023-05-19T03:24:39.813Z,11.88
2023-05-19T03:27:07.893Z,11.98
2023-05-19T03:29:35.131Z,12.11
2023-05-19T03:32:02.817Z,12.25
2023-05-19T03:34:32.841Z,12.43
2023-05-19T03:37:00.068Z,12.62
2023-05-19T03:39:27.316Z,12.80
2023-05-19T03:41:54.467Z,12.98
2023-05-19T03:44:21.507Z,13.13
2023-05-19T03:46:49.077Z,13.31
2023-05-19T03:49:35.053Z,13.56
2023-05-19T03:52:34.050Z,13.90
2023-05-19T03:55:10.223Z,14.27
2023-05-19T03:57:38.089Z,14.63
2023-05-19T04:00:06.995Z,14.99
2023-05-19T04:02:40.215Z,15.36
2023-05-19T04:05:08.714Z,15.66
2023-05-19T04:07:38.881Z,15.96
2023-05-19T04:10:07.783Z,16.21
2023-05-19T04:12:35.926Z,16.44
2023-05-19T04:15:03.186Z,16.68
2023-05-19T04:17:30.349Z,16.92
2023-05-19T04:19:58.095Z,17.15
2023-05-19T04:22:25.131Z,17.34
2023-05-19T04:24:53.304Z,17.49
2023-05-19T04:27:22.220Z,17.66
2023-05-19T04:29:50.138Z,17.80
2023-05-19T04:32:20.437Z,17.98
2023-05-19T04:34:48.968Z,18.16
2023-05-19T04:37:21.242Z,18.32
2023-05-19T04:39:49.200Z,18.49
2023-05-19T04:42:19.600Z,18.66
2023-05-19T04:44:52.132Z,18.83
2023-05-19T04:47:21.727Z,18.95
2023-05-19T04:49:49.893Z,19.03
2023-05-19T04:52:21.974Z,19.08
2023-05-19T04:54:49.944Z,19.18
2023-05-19T04:57:17.580Z,19.25
2023-05-19T04:59:46.677Z,19.34
2023-05-19T05:02:13.889Z,19.51
2023-05-19T05:04:44.330Z,19.66
2023-05-19T05:07:16.952Z,19.87
2023-05-19T05:09:44.474Z,19.98
2023-05-19T05:12:13.667Z,20.09
2023-05-19T05:14:42.099Z,20.32
2023-05-19T05:17:09.807Z,20.54
2023-05-19T05:19:37.558Z,20.79
2023-05-19T05:22:06.304Z,21.06
2023-05-19T05:24:34.428Z,21.37
2023-05-19T05:27:04.001Z,21.64
2023-05-19T05:29:31.485Z,21.86
2023-05-19T05:31:58.513Z,22.09
2023-05-19T05:34:26.096Z,22.29
2023-05-19T05:39:41.223Z,22.67
2023-05-19T05:42:11.209Z,22.76
2023-05-19T05:44:40.408Z,22.91
2023-05-19T05:47:08.224Z,23.03
2023-05-19T05:49:38.492Z,23.21
2023-05-19T05:52:07.135Z,23.34
2023-05-19T05:54:41.244Z,23.41
2023-05-19T05:57:09.369Z,23.46
2023-05-19T05:59:36.953Z,23.58
2023-05-19T06:02:04.614Z,23.67
2023-05-19T06:04:33.494Z,23.71
2023-05-19T06:07:01.869Z,23.78
2023-05-19T06:09:33.828Z,23.86
2023-05-19T06:12:01.303Z,23.92
2023-05-19T06:14:30.960Z,23.96
2023-05-19T06:17:13.045Z,24.02
2023-05-19T06:19:40.336Z,24.09
2023-05-19T06:22:07.580Z,24.19
2023-05-19T06:24:35.687Z,24.27
2023-05-19T06:27:04.017Z,24.36
2023-05-19T06:29:31.020Z,24.48
2023-05-19T06:32:00.577Z,24.55
2023-05-19T06:34:27.557Z,24.58
2023-05-19T06:39:41.790Z,24.80
2023-05-19T06:42:09.044Z,24.82
2023-05-19T06:44:55.971Z,25.00
2023-05-19T06:47:23.434Z,25.11
2023-05-19T06:49:55.511Z,25.11
2023-05-19T06:52:25.189Z,25.17
2023-05-19T06:54:52.950Z,25.14
2023-05-19T06:57:21.228Z,25.05
2023-05-19T06:59:48.413Z,25.18
2023-05-19T07:02:15.386Z,25.37
2023-05-19T07:04:43.217Z,25.44
2023-05-19T07:07:11.867Z,25.48
2023-05-19T07:09:39.431Z,25.58
2023-05-19T07:12:06.903Z,25.78
2023-05-19T07:14:34.238Z,25.94
2023-05-19T07:17:01.593Z,26.08
2023-05-19T07:19:29.038Z,26.25
2023-05-19T07:21:57.314Z,26.38
2023-05-19T07:24:25.121Z,26.50
2023-05-19T07:26:52.558Z,26.60
2023-05-19T07:29:19.700Z,26.77
2023-05-19T07:31:46.859Z,26.83
2023-05-19T07:34:13.845Z,26.89
2023-05-19T07:36:41.780Z,26.96
2023-05-19T07:39:08.983Z,27.08
2023-05-19T07:41:36.528Z,27.22
2023-05-19T07:44:08.066Z,27.39
2023-05-19T07:46:35.326Z,27.57
2023-05-19T07:49:02.519Z,27.64
2023-05-19T07:51:29.665Z,27.67
2023-05-19T07:53:57.734Z,27.44
2023-05-19T07:56:25.198Z,27.14
2023-05-19T07:58:52.339Z,26.86
2023-05-19T08:01:19.388Z,26.71
2023-05-19T08:03:46.348Z,26.72
2023-05-19T08:06:13.537Z,26.81
2023-05-19T08:08:40.833Z,26.92
2023-05-19T08:11:07.981Z,26.89
2023-05-19T08:13:35.050Z,26.78
2023-05-19T08:16:02.107Z,26.57
2023-05-19T08:18:29.636Z,26.44
2023-05-19T08:20:56.787Z,26.49
2023-05-19T08:23:23.832Z,26.56
2023-05-19T08:25:51.192Z,26.45
2023-05-19T08:28:18.340Z,26.32
2023-05-19T08:30:45.277Z,26.30
2023-05-19T08:33:12.730Z,26.27
2023-05-19T08:35:39.676Z,26.28
2023-05-19T08:38:07.049Z,26.36
2023-05-19T08:40:34.220Z,26.66
2023-05-19T08:43:01.432Z,26.99
2023-05-19T08:45:28.490Z,27.33
2023-05-19T08:47:56.063Z,27.65
2023-05-19T08:53:31.863Z,28.20
2023-05-19T08:56:15.669Z,27.96
2023-05-19T08:58:44.147Z,27.54
2023-05-19T09:01:13.813Z,27.12
2023-05-19T09:03:41.415Z,26.78
2023-05-19T09:06:09.692Z,26.54
2023-05-19T09:08:37.533Z,26.43
2023-05-19T09:11:04.904Z,26.42
2023-05-19T09:13:32.153Z,26.36
2023-05-19T09:15:59.323Z,26.40
2023-05-19T09:18:26.985Z,26.62
2023-05-19T09:21:01.069Z,26.94
2023-05-19T09:23:34.161Z,27.20
2023-05-19T09:26:08.264Z,27.46
2023-05-19T09:28:36.484Z,27.77
2023-05-19T09:31:07.851Z,28.16
2023-05-19T09:33:36.343Z,28.56
2023-05-19T09:36:06.214Z,28.96
2023-05-19T09:38:33.431Z,29.29
2023-05-19T09:41:00.947Z,29.56
2023-05-19T09:43:33.523Z,29.81
2023-05-19T09:46:03.285Z,30.07
2023-05-19T09:48:30.732Z,30.50
2023-05-19T09:50:58.291Z,30.80
2023-05-19T09:53:25.857Z,31.15
2023-05-19T09:55:57.869Z,31.30
2023-05-19T09:58:26.478Z,30.90
2023-05-19T10:00:57.400Z,30.54
2023-05-19T10:03:24.582Z,30.40
2023-05-19T10:05:51.829Z,30.22
2023-05-19T10:08:18.884Z,29.93
2023-05-19T10:10:46.992Z,29.60
2023-05-19T10:13:14.101Z,29.22
2023-05-19T10:15:57.113Z,28.83
2023-05-19T10:18:26.360Z,28.45
2023-05-19T10:20:53.824Z,28.25
2023-05-19T10:23:21.332Z,28.00
2023-05-19T10:25:49.509Z,27.84
2023-05-19T10:28:17.612Z,27.89
2023-05-19T10:30:46.257Z,28.22
2023-05-19T10:33:18.298Z,28.69
2023-05-19T10:36:02.775Z,29.18
2023-05-19T10:38:50.816Z,29.65
2023-05-19T10:41:47.877Z,30.04
2023-05-19T10:44:21.601Z,29.84
2023-05-19T10:46:49.648Z,29.38
2023-05-19T10:49:23.264Z,28.91
2023-05-19T10:51:50.702Z,28.48
2023-05-19T10:54:18.573Z,28.19
2023-05-19T10:56:48.786Z,27.84
2023-05-19T10:59:32.535Z,27.49
2023-05-19T11:02:04.300Z,27.23
2023-05-19T11:04:51.362Z,27.06
2023-05-19T11:07:24.872Z,26.93
2023-05-19T11:09:52.377Z,27.00
2023-05-19T11:12:24.819Z,27.34
2023-05-19T11:14:54.220Z,27.90
2023-05-19T11:17:22.523Z,28.43
2023-05-19T11:19:54.826Z,28.96
2023-05-19T11:22:26.267Z,29.49
2023-05-19T11:24:57.373Z,29.60
2023-05-19T11:27:34.671Z,29.46
2023-05-19T11:30:14.972Z,29.13
2023-05-19T11:32:43.025Z,28.60
2023-05-19T11:35:10.431Z,28.28
2023-05-19T11:37:37.805Z,28.09
2023-05-19T11:40:09.283Z,27.95
2023-05-19T11:42:37.419Z,27.79
2023-05-19T11:45:06.268Z,27.57
2023-05-19T11:47:42.078Z,27.38
2023-05-19T11:50:15.170Z,27.33
2023-05-19T11:52:45.271Z,27.63
2023-05-19T11:55:22.677Z,28.15
2023-05-19T11:58:04.017Z,28.71
2023-05-19T12:00:40.100Z,29.20
2023-05-19T12:03:08.316Z,29.51
2023-05-19T12:05:47.419Z,29.58
2023-05-19T12:08:15.044Z,29.48
2023-05-19T12:10:42.306Z,29.39
2023-05-19T12:13:10.137Z,29.32
2023-05-19T12:15:38.038Z,29.35
2023-05-19T12:18:05.965Z,29.63
2023-05-19T12:20:33.185Z,29.98
2023-05-19T12:23:00.906Z,30.41
2023-05-19T12:25:29.516Z,30.67
2023-05-19T12:28:05.707Z,30.63
2023-05-19T12:30:34.443Z,30.61
2023-05-19T12:33:02.806Z,30.52
2023-05-19T12:35:33.218Z,30.36
2023-05-19T12:38:07.050Z,30.10
2023-05-19T12:40:36.335Z,30.00
2023-05-19T12:43:04.444Z,29.68
2023-05-19T12:45:42.690Z,29.31
2023-05-19T12:48:19.275Z,29.02
2023-05-19T12:50:46.402Z,28.83
2023-05-19T12:53:13.890Z,28.66
2023-05-19T12:55:44.393Z,28.66
2023-05-19T12:58:12.308Z,28.84
2023-05-19T13:00:43.947Z,29.13
2023-05-19T13:03:18.111Z,29.54
2023-05-19T13:05:46.780Z,30.04
2023-05-19T13:08:18.656Z,30.45
2023-05-19T13:10:46.860Z,30.96
2023-05-19T13:13:13.961Z,31.37
2023-05-19T13:15:45.315Z,31.66
2023-05-19T13:18:13.019Z,31.79
2023-05-19T13:20:40.739Z,31.71
2023-05-19T13:23:07.718Z,31.44
2023-05-19T13:25:34.773Z,31.08
2023-05-19T13:28:05.134Z,30.94
2023-05-19T13:30:33.445Z,30.97
2023-05-19T13:33:00.659Z,31.32
2023-05-19T13:38:43.865Z,32.30
2023-05-19T13:41:12.174Z,32.61
2023-05-19T13:43:41.169Z,32.80
2023-05-19T13:46:08.098Z,32.82
2023-05-19T13:48:35.153Z,32.81
2023-05-19T13:51:02.606Z,32.71
2023-05-19T13:53:31.333Z,32.26
2023-05-19T13:55:58.223Z,31.68
2023-05-19T13:58:25.210Z,31.25
2023-05-19T14:00:54.850Z,30.89
2023-05-19T14:03:21.988Z,30.45
2023-05-19T14:05:49.193Z,30.02
2023-05-19T14:08:16.543Z,29.53
2023-05-19T14:10:43.554Z,29.16
2023-05-19T14:13:30.818Z,28.91
2023-05-19T14:15:59.726Z,28.73
2023-05-19T14:18:26.851Z,28.58
2023-05-19T14:20:53.990Z,28.41
2023-05-19T14:23:21.863Z,28.25
2023-05-19T14:25:49.006Z,28.15
2023-05-19T14:28:16.363Z,27.94
2023-05-19T14:30:43.696Z,27.71
2023-05-19T14:33:11.430Z,27.51
2023-05-19T14:35:38.767Z,27.36
2023-05-19T14:38:05.672Z,27.28
2023-05-19T14:40:32.907Z,27.17
2023-05-19T14:43:00.994Z,27.08
2023-05-19T14:45:28.344Z,27.05
2023-05-19T14:47:55.369Z,27.01
2023-05-19T14:50:22.664Z,26.99
2023-05-19T14:52:49.560Z,27.01
2023-05-19T14:55:16.842Z,27.04
2023-05-19T14:57:43.802Z,27.14
2023-05-19T15:00:12.312Z,27.35
2023-05-19T15:02:39.465Z,27.74
2023-05-19T15:05:07.144Z,28.16
2023-05-19T15:07:34.343Z,28.33
2023-05-19T15:10:02.357Z,28.36
2023-05-19T15:12:30.776Z,28.29
2023-05-19T15:14:57.928Z,28.13
2023-05-19T15:17:25.161Z,28.08
2023-05-19T15:19:53.791Z,28.13
2023-05-19T15:22:21.064Z,28.10
2023-05-19T15:24:48.296Z,27.84
2023-05-19T15:27:15.514Z,27.47
2023-05-19T15:29:42.880Z,27.10
2023-05-19T15:32:09.810Z,26.83
2023-05-19T15:34:36.963Z,26.59
2023-05-19T15:37:04.435Z,26.34
2023-05-19T15:39:31.772Z,26.17
2023-05-19T15:41:58.818Z,25.97
2023-05-19T15:44:27.628Z,25.80
2023-05-19T15:46:56.185Z,25.65
2023-05-19T15:49:25.293Z,25.52
2023-05-19T15:51:52.336Z,25.41
2023-05-19T15:54:19.477Z,25.32
2023-05-19T15:56:46.624Z,25.22
2023-05-19T15:59:14.216Z,25.13
2023-05-19T16:01:41.279Z,25.03
2023-05-19T16:04:08.336Z,24.93
2023-05-19T16:06:35.907Z,24.86
2023-05-19T16:09:06.373Z,24.78
2023-05-19T16:11:33.414Z,24.70
2023-05-19T16:14:00.458Z,24.62
2023-05-19T16:16:27.576Z,24.55
2023-05-19T16:18:54.815Z,24.47
2023-05-19T16:21:22.420Z,24.38
2023-05-19T16:23:49.465Z,24.31
2023-05-19T16:26:16.863Z,24.21
2023-05-19T16:28:43.778Z,24.11
2023-05-19T16:31:10.963Z,24.01
2023-05-19T16:33:40.214Z,23.90
2023-05-19T16:36:07.361Z,23.78
2023-05-19T16:38:34.422Z,23.66
2023-05-19T16:41:01.361Z,23.54
2023-05-19T16:43:28.401Z,23.43
2023-05-19T16:45:55.618Z,23.31
2023-05-19T16:48:22.802Z,23.17
2023-05-19T16:50:49.894Z,23.01
2023-05-19T16:53:16.892Z,22.83
2023-05-19T16:55:44.426Z,22.64
2023-05-19T16:58:11.921Z,22.46
2023-05-19T17:00:39.156Z,22.26
2023-05-19T17:03:06.396Z,22.05
2023-05-19T17:05:33.436Z,21.83
2023-05-19T17:08:01.316Z,21.63
2023-05-19T17:10:28.469Z,21.43
2023-05-19T17:12:55.443Z,21.22
2023-05-19T17:15:23.025Z,21.00
2023-05-19T17:17:49.961Z,20.77
2023-05-19T17:20:17.981Z,20.54
2023-05-19T17:22:45.033Z,20.30
2023-05-19T17:25:13.006Z,20.04
2023-05-19T17:27:39.972Z,19.79
2023-05-19T17:30:08.910Z,19.57
2023-05-19T17:32:38.661Z,19.37
2023-05-19T17:35:06.918Z,19.16
2023-05-19T17:37:34.076Z,18.97
2023-05-19T17:40:01.215Z,18.78
2023-05-19T17:42:29.386Z,18.61
2023-05-19T17:44:56.902Z,18.45
2023-05-19T17:47:24.000Z,18.28
2023-05-19T17:49:55.956Z,18.11
2023-05-19T17:52:24.002Z,17.94
2023-05-19T17:54:52.205Z,17.77
2023-05-19T17:57:19.655Z,17.64
2023-05-19T17:59:47.312Z,17.51
2023-05-19T18:02:15.791Z,17.39
2023-05-19T18:04:43.970Z,17.28
2023-05-19T18:07:12.021Z,17.17
2023-05-19T18:09:39.187Z,17.07
2023-05-19T18:12:06.930Z,16.97
2023-05-19T18:14:34.127Z,16.87
2023-05-19T18:17:01.378Z,16.77
2023-05-19T18:19:28.546Z,16.68
2023-05-19T18:21:56.361Z,16.61
2023-05-19T18:24:23.411Z,16.54
2023-05-19T18:26:50.375Z,16.44
2023-05-19T18:29:17.405Z,16.34
2023-05-19T18:31:44.377Z,16.26
2023-05-19T18:34:11.505Z,16.16
2023-05-19T18:36:38.647Z,16.06
2023-05-19T18:39:05.791Z,15.96
2023-05-19T18:41:32.885Z,15.86
2023-05-19T18:43:59.884Z,15.76
2023-05-19T18:46:27.144Z,15.68
2023-05-19T18:48:54.389Z,15.59
2023-05-19T18:51:22.048Z,15.50
2023-05-19T18:53:50.330Z,15.42
2023-05-19T18:56:27.108Z,15.33
2023-05-19T18:58:54.483Z,15.22
2023-05-19T19:01:21.688Z,15.12
2023-05-19T19:03:49.641Z,15.04
2023-05-19T19:06:21.130Z,14.96
2023-05-19T19:08:48.578Z,14.88
2023-05-19T19:11:15.869Z,14.81
2023-05-19T19:13:43.900Z,14.73
2023-05-19T19:16:11.363Z,14.66
2023-05-19T19:18:38.670Z,14.60
2023-05-19T19:21:06.121Z,14.54
2023-05-19T19:23:33.490Z,14.47
2023-05-19T19:26:00.730Z,14.42
2023-05-19T19:28:28.025Z,14.36
2023-05-19T19:30:55.065Z,14.33
2023-05-19T19:33:22.125Z,14.29
2023-05-19T19:35:49.282Z,14.23
2023-05-19T19:38:16.373Z,14.20
2023-05-19T19:40:43.719Z,14.16
2023-05-19T19:43:10.819Z,14.12
2023-05-19T19:45:39.717Z,14.07
2023-05-19T19:48:07.329Z,14.06
2023-05-19T19:50:35.350Z,14.07
2023-05-19T19:53:02.479Z,14.08
2023-05-19T19:55:30.856Z,14.10
2023-05-19T19:57:58.006Z,14.16
2023-05-19T20:00:25.276Z,14.19
2023-05-19T20:03:04.582Z,14.21
2023-05-19T20:05:33.116Z,14.24
2023-05-19T20:08:00.241Z,14.23
2023-05-19T20:10:27.484Z,14.19
2023-05-19T20:12:54.623Z,14.13
2023-05-19T20:15:21.589Z,14.04
2023-05-19T20:17:48.637Z,13.98
2023-05-19T20:20:15.978Z,13.90
2023-05-19T20:22:46.174Z,13.84
2023-05-19T20:25:13.753Z,13.78
2023-05-19T20:27:40.935Z,13.73
2023-05-19T20:30:09.277Z,13.70
2023-05-19T20:32:36.660Z,13.64
2023-05-19T20:35:03.804Z,13.56
2023-05-19T20:37:31.324Z,13.49
2023-05-19T20:39:58.828Z,13.42
2023-05-19T20:42:25.872Z,13.36
2023-05-19T20:44:53.540Z,13.30
2023-05-19T20:47:21.282Z,13.23
2023-05-19T20:49:48.725Z,13.17
2023-05-19T20:52:16.205Z,13.11
2023-05-19T20:54:43.332Z,13.07
2023-05-19T20:57:10.890Z,13.04
2023-05-19T20:59:38.340Z,13.01
2023-05-19T21:02:06.546Z,13.00
2023-05-19T21:04:34.336Z,12.98
2023-05-19T21:07:01.475Z,12.93
2023-05-19T21:11:22.653Z,12.91
2023-05-19T21:13:51.391Z,12.87
2023-05-19T21:16:18.507Z,12.85
2023-05-19T21:18:45.563Z,12.82
2023-05-19T21:21:12.983Z,12.80
2023-05-19T21:23:40.035Z,12.79
2023-05-19T21:26:07.698Z,12.78
2023-05-19T21:28:34.740Z,12.78
2023-05-19T21:31:01.979Z,12.76
2023-05-19T21:33:29.451Z,12.76
2023-05-19T21:36:01.077Z,12.78
2023-05-19T21:38:28.570Z,12.77
2023-05-19T21:40:59.123Z,12.73
2023-05-19T21:43:26.466Z,12.71
2023-05-19T21:45:54.096Z,12.70
2023-05-19T21:48:21.914Z,12.69
2023-05-19T21:50:55.873Z,12.64
2023-05-19T21:53:22.923Z,12.66
2023-05-19T21:55:50.378Z,12.73
2023-05-19T21:58:18.448Z,12.76
2023-05-19T22:00:50.872Z,12.75
2023-05-19T22:03:18.065Z,12.71
2023-05-19T22:05:52.615Z,12.67
2023-05-19T22:08:20.154Z,12.63
2023-05-19T22:10:51.172Z,12.57
2023-05-19T22:13:19.124Z,12.51
2023-05-19T22:15:46.817Z,12.49
2023-05-19T22:18:13.868Z,12.47
2023-05-19T22:20:40.915Z,12.43
2023-05-19T22:23:07.962Z,12.37
2023-05-19T22:25:36.336Z,12.29
2023-05-19T22:28:03.387Z,12.24
2023-05-19T22:30:31.059Z,12.18
2023-05-19T22:32:58.223Z,12.12
2023-05-19T22:35:26.159Z,12.06
2023-05-19T22:37:53.203Z,12.00
2023-05-19T22:40:20.662Z,11.96
2023-05-19T22:42:47.917Z,11.92
2023-05-19T22:45:15.625Z,11.92
2023-05-19T22:47:42.865Z,11.89
2023-05-19T22:50:11.137Z,11.84
2023-05-19T22:52:38.762Z,11.77
2023-05-19T22:55:06.633Z,11.74
2023-05-19T22:57:33.672Z,11.70
2023-05-19T23:00:01.214Z,11.68
2023-05-19T23:02:28.398Z,11.66
2023-05-19T23:04:56.046Z,11.63
2023-05-19T23:07:23.601Z,11.61
2023-05-19T23:09:50.644Z,11.61
2023-05-19T23:12:17.896Z,11.63
2023-05-19T23:14:45.049Z,11.66
2023-05-19T23:17:12.245Z,11.73
2023-05-19T23:19:39.446Z,11.78
2023-05-19T23:22:07.003Z,11.82
2023-05-19T23:24:34.048Z,11.88
2023-05-19T23:27:01.414Z,11.95
2023-05-19T23:29:28.454Z,12.03
2023-05-19T23:31:55.496Z,12.10
2023-05-19T23:34:22.551Z,12.17
2023-05-19T23:36:49.475Z,12.23
2023-05-19T23:39:16.747Z,12.27
2023-05-19T23:41:43.696Z,12.30
2023-05-19T23:44:10.852Z,12.40
2023-05-19T23:46:37.979Z,12.51
2023-05-19T23:49:05.653Z,12.58
2023-05-19T23:51:32.630Z,12.60
2023-05-19T23:53:59.525Z,12.62
2023-05-19T23:56:26.509Z,12.64
2023-05-19T23:58:53.536Z,12.67
